createdAt,value
2023-09-28T00:03:51.836Z,15.70
2023-09-28T00:09:53.878Z,15.70
2023-09-28T00:15:55.905Z,15.90
2023-09-28T00:21:57.903Z,16.10
2023-09-28T00:27:59.862Z,16.20
2023-09-28T00:34:01.841Z,16.00
2023-09-28T00:40:18.097Z,15.90
2023-09-28T00:46:20.137Z,15.80
2023-09-28T00:52:22.795Z,15.80
2023-09-28T00:58:25.079Z,15.80
2023-09-28T01:04:27.432Z,15.90
2023-09-28T01:10:30.712Z,15.90
2023-09-28T01:16:32.717Z,16.00
2023-09-28T01:22:34.666Z,16.00
2023-09-28T01:28:36.594Z,15.90
2023-09-28T01:34:38.699Z,15.90
2023-09-28T01:40:42.935Z,15.90
2023-09-28T01:46:44.993Z,16.00
2023-09-28T01:52:47.103Z,16.00
2023-09-28T01:58:49.056Z,16.00
2023-09-28T02:04:51.073Z,16.00
2023-09-28T02:10:53.066Z,15.90
2023-09-28T02:16:55.766Z,15.90
2023-09-28T02:22:58.605Z,15.80
2023-09-28T02:29:00.917Z,15.80
2023-09-28T02:35:03.696Z,15.70
2023-09-28T02:41:05.722Z,15.60
2023-09-28T02:47:10.344Z,15.50
2023-09-28T02:53:12.396Z,15.30
2023-09-28T02:59:15.448Z,15.10
2023-09-28T03:05:20.508Z,15.10
2023-09-28T03:11:22.523Z,15.10
2023-09-28T03:17:25.020Z,15.00
2023-09-28T03:23:27.109Z,15.10
2023-09-28T03:29:29.163Z,15.00
2023-09-28T03:35:31.740Z,15.00
2023-09-28T03:41:33.754Z,15.20
2023-09-28T03:47:40.671Z,15.40
2023-09-28T03:53:42.862Z,15.30
2023-09-28T03:59:44.833Z,15.30
2023-09-28T04:05:46.757Z,15.40
2023-09-28T04:11:48.723Z,15.40
2023-09-28T04:17:50.739Z,15.40
2023-09-28T04:23:52.913Z,15.40
2023-09-28T04:29:55.938Z,15.50
2023-09-28T04:35:58.209Z,15.40
2023-09-28T04:42:00.309Z,15.40
2023-09-28T04:48:02.374Z,15.30
2023-09-28T04:54:05.781Z,15.20
2023-09-28T05:00:12.146Z,15.10
2023-09-28T05:06:14.148Z,15.20
2023-09-28T05:12:16.080Z,15.30
2023-09-28T05:18:18.020Z,15.30
2023-09-28T05:24:19.972Z,15.40
2023-09-28T05:30:21.980Z,15.50
2023-09-28T05:36:26.040Z,15.50
2023-09-28T05:42:28.155Z,15.50
2023-09-28T05:48:30.099Z,15.70
2023-09-28T05:54:32.048Z,15.50
2023-09-28T06:00:33.993Z,15.60
2023-09-28T06:06:35.945Z,15.60
2023-09-28T06:12:37.928Z,15.70
2023-09-28T06:18:42.244Z,15.80
2023-09-28T06:24:44.369Z,16.10
2023-09-28T06:30:46.400Z,16.30
2023-09-28T06:36:49.715Z,16.60
2023-09-28T06:42:52.757Z,16.80
2023-09-28T06:48:55.031Z,17.00
2023-09-28T06:54:58.406Z,17.10
2023-09-28T07:01:00.537Z,17.30
2023-09-28T07:07:02.552Z,17.40
2023-09-28T07:13:06.739Z,17.50
2023-09-28T07:19:08.759Z,17.60
2023-09-28T07:25:10.804Z,17.80
2023-09-28T07:31:14.354Z,17.90
2023-09-28T07:37:18.128Z,17.90
2023-09-28T07:43:21.338Z,18.10
2023-09-28T07:49:23.274Z,18.30
2023-09-28T07:55:25.220Z,18.70
2023-09-28T08:01:28.015Z,18.90
2023-09-28T08:07:33.109Z,19.10
2023-09-28T08:13:35.385Z,19.60
2023-09-28T08:19:37.912Z,19.90
2023-09-28T08:25:39.846Z,20.20
2023-09-28T08:31:41.944Z,20.90
2023-09-28T08:37:43.895Z,23.60
2023-09-28T08:44:00.540Z,26.40
2023-09-28T08:50:04.054Z,28.30
2023-09-28T08:56:07.300Z,30.00
2023-09-28T09:02:10.729Z,31.30
2023-09-28T09:08:15.429Z,32.00
2023-09-28T09:14:17.711Z,32.70
2023-09-28T09:20:23.187Z,33.00
2023-09-28T09:26:25.562Z,33.20
2023-09-28T09:32:29.276Z,32.90
2023-09-28T09:38:32.372Z,32.40
2023-09-28T09:44:34.648Z,33.20
2023-09-28T09:50:40.053Z,33.50
2023-09-28T09:56:48.046Z,34.30
2023-09-28T10:02:55.077Z,34.50
2023-09-28T10:08:57.371Z,34.80
2023-09-28T10:15:01.396Z,35.30
2023-09-28T10:21:04.707Z,35.60
2023-09-28T10:27:11.972Z,36.10
2023-09-28T10:33:16.460Z,36.60
2023-09-28T10:39:18.673Z,36.20
2023-09-28T10:45:28.450Z,35.70
2023-09-28T10:51:30.639Z,36.20
2023-09-28T10:57:33.775Z,35.30
2023-09-28T11:03:37.896Z,34.90
2023-09-28T11:09:41.419Z,33.80
2023-09-28T11:15:43.504Z,32.90
2023-09-28T11:21:45.746Z,33.60
2023-09-28T11:27:48.620Z,34.10
2023-09-28T11:33:50.782Z,33.10
2023-09-28T11:39:53.135Z,33.30
2023-09-28T11:45:55.354Z,33.50
2023-09-28T11:51:57.963Z,33.50
2023-09-28T11:58:00.549Z,31.60
2023-09-28T12:04:02.826Z,31.90
2023-09-28T12:10:06.224Z,32.00
2023-09-28T12:16:08.536Z,31.80
2023-09-28T12:22:10.530Z,32.10
2023-09-28T12:28:13.106Z,31.90
2023-09-28T12:34:15.299Z,33.00
2023-09-28T12:40:18.851Z,33.80
2023-09-28T12:46:20.918Z,33.90
2023-09-28T12:52:24.479Z,33.70
2023-09-28T12:58:26.697Z,34.20
2023-09-28T13:04:28.789Z,35.40
2023-09-28T13:10:30.825Z,36.00
2023-09-28T13:16:32.818Z,34.90
2023-09-28T13:22:37.664Z,33.80
2023-09-28T13:28:40.391Z,34.20
2023-09-28T13:34:43.439Z,34.80
2023-09-28T13:40:52.185Z,35.60
2023-09-28T13:47:04.203Z,34.90
2023-09-28T13:53:06.682Z,35.60
2023-09-28T13:59:11.073Z,35.50
2023-09-28T14:05:13.093Z,34.70
2023-09-28T14:11:22.171Z,34.50
2023-09-28T14:17:36.445Z,34.50
2023-09-28T14:23:41.205Z,34.80
2023-09-28T14:29:43.260Z,34.80
2023-09-28T14:35:45.838Z,35.20
2023-09-28T14:41:48.299Z,33.80
2023-09-28T14:47:50.354Z,34.10
2023-09-28T14:53:52.430Z,35.40
2023-09-28T14:59:54.716Z,35.40
2023-09-28T15:05:56.739Z,35.50
2023-09-28T15:11:59.003Z,35.70
2023-09-28T15:18:01.847Z,34.70
2023-09-28T15:24:09.066Z,33.60
2023-09-28T15:30:16.334Z,32.20
2023-09-28T15:36:18.400Z,31.80
2023-09-28T15:42:21.330Z,31.50
2023-09-28T15:48:23.319Z,30.60
2023-09-28T15:54:25.329Z,30.20
2023-09-28T16:00:37.550Z,30.30
2023-09-28T16:06:40.510Z,29.70
2023-09-28T16:12:43.807Z,29.40
2023-09-28T16:18:45.785Z,29.50
2023-09-28T16:24:47.806Z,28.60
2023-09-28T16:30:49.755Z,27.00
2023-09-28T16:36:51.791Z,25.60
2023-09-28T16:42:53.739Z,24.80
2023-09-28T16:48:55.871Z,24.00
2023-09-28T16:54:58.038Z,23.40
2023-09-28T17:00:59.998Z,23.00
2023-09-28T17:07:02.181Z,22.70
2023-09-28T17:13:04.369Z,22.30
2023-09-28T17:19:06.739Z,21.90
2023-09-28T17:25:12.101Z,21.60
2023-09-28T17:31:15.162Z,21.20
2023-09-28T17:37:17.420Z,21.00
2023-09-28T17:43:19.814Z,20.90
2023-09-28T17:49:21.831Z,20.70
2023-09-28T17:55:23.907Z,20.60
2023-09-28T18:01:26.497Z,20.50
2023-09-28T18:07:29.512Z,20.50
2023-09-28T18:13:31.489Z,20.50
2023-09-28T18:19:34.730Z,20.40
2023-09-28T18:25:37.799Z,20.40
2023-09-28T18:31:39.965Z,20.30
2023-09-28T18:37:42.206Z,20.40
2023-09-28T18:43:48.613Z,20.40
2023-09-28T18:49:50.566Z,20.40
2023-09-28T18:55:52.499Z,20.30
2023-09-28T19:01:54.539Z,20.20
2023-09-28T19:07:56.582Z,20.20
2023-09-28T19:13:58.615Z,20.10
2023-09-28T19:20:00.970Z,20.00
2023-09-28T19:26:03.294Z,19.90
2023-09-28T19:32:06.203Z,19.70
2023-09-28T19:38:08.491Z,19.70
2023-09-28T19:44:10.541Z,19.70
2023-09-28T19:50:12.652Z,19.80
2023-09-28T19:56:29.036Z,19.80
2023-09-28T20:02:31.095Z,19.70
2023-09-28T20:08:33.494Z,19.70
2023-09-28T20:14:35.503Z,19.60
2023-09-28T20:20:37.471Z,19.50
2023-09-28T20:26:39.451Z,19.40
2023-09-28T20:32:44.050Z,19.20
2023-09-28T20:38:47.774Z,19.10
2023-09-28T20:44:49.873Z,19.00
2023-09-28T20:50:51.853Z,19.00
2023-09-28T20:56:53.845Z,18.90
2023-09-28T21:02:55.925Z,18.70
2023-09-28T21:08:58.585Z,18.60
2023-09-28T21:15:00.742Z,18.50
2023-09-28T21:21:02.688Z,18.40
2023-09-28T21:27:04.663Z,18.40
2023-09-28T21:33:06.839Z,18.30
2023-09-28T21:39:08.919Z,18.20
2023-09-28T21:45:11.566Z,18.20
2023-09-28T21:51:13.498Z,18.10
2023-09-28T21:57:15.450Z,18.00
2023-09-28T22:03:17.429Z,18.00
2023-09-28T22:09:19.524Z,17.90
2023-09-28T22:15:22.312Z,17.80
2023-09-28T22:21:24.332Z,17.80
2023-09-28T22:27:33.923Z,17.80
2023-09-28T22:33:35.990Z,17.80
2023-09-28T22:39:38.024Z,17.70
2023-09-28T22:45:40.073Z,17.70
2023-09-28T22:51:42.082Z,17.60
2023-09-28T22:57:44.058Z,17.60
2023-09-28T23:03:46.388Z,17.50
2023-09-28T23:09:48.603Z,17.40
2023-09-28T23:15:50.875Z,17.40
2023-09-28T23:21:55.190Z,17.40
2023-09-28T23:27:57.167Z,17.20
2023-09-28T23:33:59.161Z,17.30
2023-09-28T23:40:01.130Z,17.20
2023-09-28T23:46:04.159Z,17.20
2023-09-28T23:52:06.268Z,17.20
2023-09-28T23:58:08.286Z,17.20
